Time;durP1;ratioP1;P1;durP2;ratioP2;P2;SDS_P1;SDS_P2;PMS_P1;PMS_P2;Temp;Humidity;BMP_temperature;BMP_pressure;BME280_temperature;BME280_humidity;BME280_pressure;Samples;Min_cycle;Max_cycle;Signal;HPM_P1;HPM_P2
2022/12/11 00:01:31;;;;;;;79.93;19.52;;;;;;;;;;5077864;28;20212;-78
2022/12/11 00:03:58;;;;;;;83.80;21.73;;;;;;;;;;5079271;28;20206;-78
2022/12/11 00:06:25;;;;;;;83.68;21.52;;;;;;;;;;5079665;28;20205;-79
2022/12/11 00:08:52;;;;;;;86.63;22.58;;;;;;;;;;5078375;28;20212;-79
2022/12/11 00:11:20;;;;;;;87.05;22.48;;;;;;;;;;5078427;28;20229;-76
2022/12/11 00:13:49;;;;;;;84.75;21.98;;;;;;;;;;5075955;28;20573;-77
2022/12/11 00:16:16;;;;;;;88.90;23.70;;;;;;;;;;5075978;28;20229;-77
2022/12/11 00:18:43;;;;;;;85.68;23.50;;;;;;;;;;5075135;28;20205;-77
2022/12/11 00:21:12;;;;;;;87.75;23.70;;;;;;;;;;5075418;28;20224;-77
2022/12/11 00:23:39;;;;;;;84.22;21.13;;;;;;;;;;5075907;28;20701;-75
2022/12/11 00:26:08;;;;;;;83.13;20.80;;;;;;;;;;5075548;28;20209;-77
2022/12/11 00:28:35;;;;;;;89.10;22.02;;;;;;;;;;5074926;28;20296;-77
2022/12/11 00:31:05;;;;;;;83.20;20.90;;;;;;;;;;5075699;28;20231;-76
2022/12/11 00:33:32;;;;;;;87.90;21.10;;;;;;;;;;5075317;28;20201;-76
2022/12/11 00:35:59;;;;;;;87.22;24.27;;;;;;;;;;5074957;28;20230;-76
2022/12/11 00:38:26;;;;;;;85.72;22.15;;;;;;;;;;5075040;28;20201;-76
2022/12/11 00:40:53;;;;;;;84.65;22.35;;;;;;;;;;5074844;28;20256;-77
2022/12/11 00:43:21;;;;;;;86.53;22.15;;;;;;;;;;5075229;28;20205;-76
2022/12/11 00:45:48;;;;;;;86.70;21.15;;;;;;;;;;5075036;28;20208;-77
2022/12/11 00:48:16;;;;;;;85.82;22.52;;;;;;;;;;5075522;28;20332;-77
2022/12/11 00:50:43;;;;;;;83.07;18.88;;;;;;;;;;5074327;28;20225;-76
2022/12/11 00:53:10;;;;;;;85.22;21.52;;;;;;;;;;5075089;28;20697;-76
2022/12/11 00:55:38;;;;;;;84.88;21.75;;;;;;;;;;5075362;28;20608;-77
2022/12/11 00:58:05;;;;;;;80.53;19.85;;;;;;;;;;5075501;28;20212;-76
2022/12/11 01:00:32;;;;;;;85.22;21.23;;;;;;;;;;5074837;28;20225;-77
2022/12/11 01:03:00;;;;;;;82.50;20.52;;;;;;;;;;5075122;28;20205;-76
2022/12/11 01:05:28;;;;;;;80.45;20.40;;;;;;;;;;5074966;28;20292;-75
2022/12/11 01:07:55;;;;;;;80.63;20.52;;;;;;;;;;5075185;28;20214;-76
2022/12/11 01:10:24;;;;;;;84.85;19.27;;;;;;;;;;5074171;28;20229;-77
2022/12/11 01:12:51;;;;;;;88.38;20.83;;;;;;;;;;5075091;28;20207;-76
2022/12/11 01:15:19;;;;;;;82.65;20.02;;;;;;;;;;5074407;28;20229;-77
2022/12/11 01:17:46;;;;;;;83.25;19.50;;;;;;;;;;5074580;28;20211;-77
2022/12/11 01:20:13;;;;;;;86.90;21.40;;;;;;;;;;5073910;28;20222;-76
2022/12/11 01:22:42;;;;;;;85.72;19.95;;;;;;;;;;5075021;28;20213;-77
2022/12/11 01:25:10;;;;;;;83.95;21.33;;;;;;;;;;5073693;28;20209;-76
2022/12/11 01:27:37;;;;;;;82.25;20.02;;;;;;;;;;5074263;28;20214;-77
2022/12/11 01:30:05;;;;;;;80.35;19.65;;;;;;;;;;5074734;28;20621;-77
2022/12/11 01:32:33;;;;;;;82.43;20.25;;;;;;;;;;5075461;28;20208;-77
2022/12/11 01:35:01;;;;;;;89.85;22.95;;;;;;;;;;5075282;28;20228;-77
2022/12/11 01:37:28;;;;;;;83.30;21.13;;;;;;;;;;5075331;28;20213;-77
2022/12/11 01:39:57;;;;;;;83.65;20.42;;;;;;;;;;5074392;28;20246;-77
2022/12/11 01:42:25;;;;;;;82.75;21.45;;;;;;;;;;5074998;28;20205;-76
2022/12/11 01:45:25;;;;;;;82.32;20.88;;;;;;;;;;5074871;28;20295;-76
2022/12/11 01:47:54;;;;;;;85.20;20.60;;;;;;;;;;5074347;28;20201;-76
2022/12/11 01:50:22;;;;;;;87.82;21.00;;;;;;;;;;5074276;28;20315;-77
2022/12/11 01:52:50;;;;;;;85.60;21.42;;;;;;;;;;5075027;28;20300;-77
2022/12/11 01:55:19;;;;;;;86.07;19.65;;;;;;;;;;5073729;28;20251;-76
2022/12/11 01:57:49;;;;;;;82.25;21.50;;;;;;;;;;5073167;28;20230;-76
2022/12/11 02:00:17;;;;;;;86.47;21.67;;;;;;;;;;5072612;28;20225;-76
2022/12/11 02:02:44;;;;;;;84.25;19.88;;;;;;;;;;5073332;28;20205;-76
2022/12/11 02:05:12;;;;;;;88.25;21.48;;;;;;;;;;5073173;28;20211;-77
2022/12/11 02:07:41;;;;;;;79.80;19.52;;;;;;;;;;5073189;28;20298;-77
2022/12/11 02:10:10;;;;;;;86.28;22.38;;;;;;;;;;5071833;28;20622;-76
2022/12/11 02:12:42;;;;;;;83.07;21.02;;;;;;;;;;5072938;28;20201;-76
2022/12/11 02:15:12;;;;;;;83.30;20.95;;;;;;;;;;5072590;28;20224;-76
2022/12/11 02:17:42;;;;;;;79.97;20.17;;;;;;;;;;5072909;28;20639;-76
2022/12/11 02:20:13;;;;;;;84.15;20.55;;;;;;;;;;5071966;28;20229;-75
2022/12/11 02:22:48;;;;;;;85.25;21.88;;;;;;;;;;5072543;28;20209;-77
2022/12/11 02:25:17;;;;;;;85.50;21.27;;;;;;;;;;5068674;28;20209;-76
2022/12/11 02:27:47;;;;;;;80.93;20.73;;;;;;;;;;5072764;28;20209;-76
2022/12/11 02:30:16;;;;;;;81.03;20.83;;;;;;;;;;5071801;28;20225;-76
2022/12/11 02:32:46;;;;;;;83.80;21.33;;;;;;;;;;5072469;28;20206;-76
2022/12/11 02:35:14;;;;;;;82.25;19.45;;;;;;;;;;5072347;28;20227;-76
2022/12/11 02:37:44;;;;;;;86.60;21.92;;;;;;;;;;5072343;28;20211;-76
2022/12/11 02:40:13;;;;;;;83.15;21.17;;;;;;;;;;5071687;28;20603;-76
2022/12/11 02:42:41;;;;;;;81.97;19.63;;;;;;;;;;5072378;28;20219;-76
2022/12/11 02:45:10;;;;;;;86.25;23.50;;;;;;;;;;5072346;28;20205;-76
2022/12/11 02:47:38;;;;;;;83.43;20.98;;;;;;;;;;5072228;28;20669;-76
2022/12/11 02:50:09;;;;;;;84.80;21.73;;;;;;;;;;5071575;28;20229;-75
2022/12/11 02:52:37;;;;;;;85.97;22.60;;;;;;;;;;5072607;28;20243;-76
2022/12/11 02:55:06;;;;;;;85.55;22.65;;;;;;;;;;5072157;28;20585;-76
2022/12/11 02:57:35;;;;;;;86.47;21.17;;;;;;;;;;5072109;28;20206;-75
2022/12/11 03:00:04;;;;;;;82.47;21.25;;;;;;;;;;5070266;28;20231;-76
2022/12/11 03:02:31;;;;;;;82.82;20.73;;;;;;;;;;5072136;28;20209;-76
2022/12/11 03:05:00;;;;;;;81.68;20.90;;;;;;;;;;5071855;28;20205;-76
2022/12/11 03:07:28;;;;;;;84.82;22.33;;;;;;;;;;5072290;28;20302;-76
2022/12/11 03:09:56;;;;;;;84.65;22.50;;;;;;;;;;5071314;28;20236;-76
2022/12/11 03:12:24;;;;;;;80.90;20.63;;;;;;;;;;5072014;28;20673;-76
2022/12/11 03:14:52;;;;;;;84.28;21.23;;;;;;;;;;5072012;28;20201;-76
2022/12/11 03:17:20;;;;;;;84.93;22.00;;;;;;;;;;5072019;28;20233;-76
2022/12/11 03:19:48;;;;;;;80.53;20.08;;;;;;;;;;5071248;28;20317;-76
2022/12/11 03:22:19;;;;;;;81.05;19.77;;;;;;;;;;5072394;28;20209;-76
2022/12/11 03:24:48;;;;;;;80.18;19.75;;;;;;;;;;5071693;28;20205;-76
2022/12/11 03:27:17;;;;;;;81.00;20.13;;;;;;;;;;5072018;28;20205;-77
2022/12/11 03:29:49;;;;;;;83.53;21.50;;;;;;;;;;5071071;28;20320;-77
2022/12/11 03:32:21;;;;;;;80.00;20.48;;;;;;;;;;5071892;28;20206;-76
2022/12/11 03:34:52;;;;;;;82.70;21.40;;;;;;;;;;5071945;28;20240;-74
2022/12/11 03:37:21;;;;;;;79.07;20.98;;;;;;;;;;5071496;28;20239;-76
2022/12/11 03:39:50;;;;;;;81.32;20.23;;;;;;;;;;5071109;28;20259;-76
2022/12/11 03:42:18;;;;;;;83.55;19.92;;;;;;;;;;5071753;28;20209;-76
2022/12/11 03:44:46;;;;;;;79.13;19.55;;;;;;;;;;5071636;28;20227;-75
2022/12/11 03:47:16;;;;;;;80.75;21.27;;;;;;;;;;5071826;28;20201;-76
2022/12/11 03:49:44;;;;;;;78.00;18.45;;;;;;;;;;5070638;28;20225;-76
2022/12/11 03:52:12;;;;;;;79.22;17.02;;;;;;;;;;5071841;28;20587;-76
2022/12/11 03:54:43;;;;;;;80.03;18.58;;;;;;;;;;5071601;28;20646;-76
2022/12/11 03:57:12;;;;;;;78.18;17.80;;;;;;;;;;5071425;28;20229;-76
2022/12/11 03:59:39;;;;;;;81.57;21.70;;;;;;;;;;5070446;28;20325;-77
2022/12/11 04:02:10;;;;;;;85.45;20.20;;;;;;;;;;5071208;28;20208;-76
2022/12/11 04:04:37;;;;;;;77.22;19.45;;;;;;;;;;5071657;28;20248;-76
2022/12/11 04:07:04;;;;;;;79.13;19.80;;;;;;;;;;5071464;28;20288;-76
2022/12/11 04:09:31;;;;;;;83.50;20.42;;;;;;;;;;5070717;28;20252;-76
2022/12/11 04:12:00;;;;;;;80.57;18.30;;;;;;;;;;5073791;28;20299;-76
2022/12/11 04:24:13;;;;;;;83.25;21.90;;;;;;;;;;5074872;28;20298;-76
2022/12/11 04:25:28;;;;;;;84.40;21.40;;;;;;;;;;5074810;28;20208;-75
2022/12/11 04:27:57;;;;;;;79.60;18.88;;;;;;;;;;5074603;28;20669;-76
2022/12/11 04:30:25;;;;;;;84.85;21.75;;;;;;;;;;5074010;28;20262;-76
2022/12/11 04:32:53;;;;;;;83.30;19.88;;;;;;;;;;5075130;28;20312;-76
2022/12/11 04:35:20;;;;;;;80.35;20.00;;;;;;;;;;5074434;28;20216;-76
2022/12/11 04:37:47;;;;;;;85.43;20.90;;;;;;;;;;5074316;28;20235;-76
2022/12/11 04:40:15;;;;;;;84.70;21.20;;;;;;;;;;5073726;28;20228;-76
2022/12/11 04:42:43;;;;;;;81.75;19.73;;;;;;;;;;5074440;28;20577;-75
2022/12/11 04:45:12;;;;;;;85.20;21.25;;;;;;;;;;5074454;28;20231;-76
2022/12/11 04:47:40;;;;;;;86.97;21.23;;;;;;;;;;5074451;28;20582;-76
2022/12/11 04:50:08;;;;;;;80.38;20.38;;;;;;;;;;5073373;28;20669;-76
2022/12/11 04:52:35;;;;;;;84.70;19.92;;;;;;;;;;5074553;28;20216;-76
2022/12/11 04:55:02;;;;;;;80.68;20.17;;;;;;;;;;5073660;28;20213;-76
2022/12/11 04:57:29;;;;;;;86.05;19.13;;;;;;;;;;5074173;28;20278;-76
2022/12/11 04:59:56;;;;;;;84.50;21.65;;;;;;;;;;5073201;28;20601;-76
2022/12/11 05:02:25;;;;;;;85.70;22.63;;;;;;;;;;5074071;28;20215;-76
2022/12/11 05:04:52;;;;;;;82.43;19.35;;;;;;;;;;5073814;28;20209;-76
2022/12/11 05:07:19;;;;;;;90.30;22.63;;;;;;;;;;5073868;28;20198;-76
2022/12/11 05:09:46;;;;;;;84.88;22.63;;;;;;;;;;5072692;28;20225;-76
2022/12/11 05:12:13;;;;;;;82.65;22.33;;;;;;;;;;5074095;28;20211;-75
2022/12/11 05:14:40;;;;;;;87.82;23.00;;;;;;;;;;5074401;28;20201;-76
2022/12/11 05:17:08;;;;;;;86.88;22.55;;;;;;;;;;5074295;28;20711;-76
2022/12/11 05:19:36;;;;;;;87.15;20.42;;;;;;;;;;5074326;28;20253;-76
2022/12/11 05:22:03;;;;;;;85.68;22.40;;;;;;;;;;5074438;28;20205;-76
2022/12/11 05:24:30;;;;;;;87.82;24.80;;;;;;;;;;5074038;28;20201;-76
2022/12/11 05:26:57;;;;;;;86.57;24.52;;;;;;;;;;5073718;28;20590;-76
2022/12/11 05:29:24;;;;;;;83.95;22.33;;;;;;;;;;5072814;28;20713;-76
2022/12/11 05:31:52;;;;;;;83.82;21.65;;;;;;;;;;5073515;28;20217;-75
2022/12/11 05:34:19;;;;;;;86.35;22.92;;;;;;;;;;5073656;28;20611;-76
2022/12/11 05:36:47;;;;;;;86.10;22.10;;;;;;;;;;5073618;28;20225;-75
2022/12/11 05:39:15;;;;;;;86.68;22.67;;;;;;;;;;5072579;28;20251;-76
2022/12/11 05:41:42;;;;;;;87.88;22.48;;;;;;;;;;5073417;28;20347;-76
2022/12/11 05:44:11;;;;;;;83.22;21.48;;;;;;;;;;5073128;28;20211;-76
2022/12/11 05:46:38;;;;;;;87.32;22.13;;;;;;;;;;5073498;28;20201;-77
2022/12/11 05:49:05;;;;;;;83.07;21.73;;;;;;;;;;5072073;28;20677;-76
2022/12/11 05:51:33;;;;;;;89.53;22.55;;;;;;;;;;5073229;28;20205;-76
2022/12/11 05:54:02;;;;;;;84.95;21.15;;;;;;;;;;5073065;28;20205;-76
2022/12/11 05:56:30;;;;;;;90.18;23.40;;;;;;;;;;5072846;28;20228;-76
2022/12/11 05:58:58;;;;;;;87.43;22.90;;;;;;;;;;5071999;28;20209;-76
2022/12/11 06:01:26;;;;;;;84.20;21.33;;;;;;;;;;5072739;28;20595;-76
2022/12/11 06:03:54;;;;;;;93.90;23.27;;;;;;;;;;5072722;28;20673;-76
2022/12/11 06:06:21;;;;;;;87.00;22.92;;;;;;;;;;5072812;28;20204;-76
2022/12/11 06:08:50;;;;;;;91.95;26.85;;;;;;;;;;5072227;28;20230;-76
2022/12/11 06:11:18;;;;;;;93.72;24.85;;;;;;;;;;5072662;28;20236;-76
2022/12/11 06:13:45;;;;;;;91.47;24.10;;;;;;;;;;5073072;28;20211;-76
2022/12/11 06:16:13;;;;;;;97.28;25.20;;;;;;;;;;5072767;28;20323;-76
2022/12/11 06:18:45;;;;;;;88.35;24.30;;;;;;;;;;5071902;28;20209;-76
2022/12/11 06:21:15;;;;;;;91.40;23.60;;;;;;;;;;5072399;28;20225;-76
2022/12/11 06:23:42;;;;;;;92.65;25.50;;;;;;;;;;5072589;28;20211;-76
2022/12/11 06:26:10;;;;;;;88.60;24.35;;;;;;;;;;5072153;28;20219;-76
2022/12/11 06:28:39;;;;;;;90.82;23.40;;;;;;;;;;5071781;28;20297;-76
2022/12/11 06:31:07;;;;;;;88.15;24.20;;;;;;;;;;5072140;28;20229;-76
2022/12/11 06:33:34;;;;;;;86.63;22.63;;;;;;;;;;5072004;28;20227;-76
2022/12/11 06:36:02;;;;;;;88.18;23.33;;;;;;;;;;5072131;28;20666;-76
2022/12/11 06:38:29;;;;;;;89.60;23.85;;;;;;;;;;5071741;28;20201;-76
2022/12/11 06:40:56;;;;;;;92.07;23.88;;;;;;;;;;5071783;28;20237;-76
2022/12/11 06:43:23;;;;;;;93.68;24.73;;;;;;;;;;5072246;28;20243;-76
2022/12/11 06:45:52;;;;;;;91.90;25.13;;;;;;;;;;5072111;28;20707;-76
2022/12/11 06:48:19;;;;;;;90.03;24.90;;;;;;;;;;5071972;28;20205;-76
2022/12/11 06:50:47;;;;;;;92.78;27.98;;;;;;;;;;5071282;28;20225;-76
2022/12/11 06:53:14;;;;;;;88.85;24.08;;;;;;;;;;5072352;28;20235;-76
2022/12/11 06:55:42;;;;;;;88.72;22.52;;;;;;;;;;5072041;28;20219;-76
2022/12/11 06:58:09;;;;;;;89.10;23.92;;;;;;;;;;5071845;28;20227;-76
2022/12/11 07:00:37;;;;;;;90.68;25.48;;;;;;;;;;5071258;28;20229;-76
2022/12/11 07:03:05;;;;;;;98.40;26.73;;;;;;;;;;5071877;28;20276;-77
2022/12/11 07:05:33;;;;;;;86.65;24.20;;;;;;;;;;5072277;28;20205;-76
2022/12/11 07:08:00;;;;;;;94.57;25.73;;;;;;;;;;5072229;28;20201;-76
2022/12/11 07:10:27;;;;;;;89.93;25.83;;;;;;;;;;5075430;28;20287;-78
2022/12/11 07:12:54;;;;;;;94.95;26.65;;;;;;;;;;5077471;28;20215;-79
2022/12/11 07:15:21;;;;;;;92.38;24.08;;;;;;;;;;5077141;28;20288;-79
2022/12/11 07:17:49;;;;;;;94.97;26.05;;;;;;;;;;5076798;28;20231;-78
2022/12/11 07:20:17;;;;;;;93.93;25.52;;;;;;;;;;5074398;28;20601;-79
2022/12/11 07:22:44;;;;;;;95.75;27.58;;;;;;;;;;5075564;28;20205;-78
2022/12/11 07:25:11;;;;;;;92.18;25.50;;;;;;;;;;5075648;28;20228;-78
2022/12/11 07:27:38;;;;;;;88.53;23.95;;;;;;;;;;5075283;28;20197;-78
2022/12/11 07:30:06;;;;;;;95.50;25.63;;;;;;;;;;5074908;28;20640;-77
2022/12/11 07:32:33;;;;;;;89.72;25.33;;;;;;;;;;5072704;28;20211;-76
2022/12/11 07:35:00;;;;;;;91.95;27.65;;;;;;;;;;5072077;28;20231;-76
2022/12/11 07:37:29;;;;;;;103.38;33.33;;;;;;;;;;5071980;28;20228;-76
2022/12/11 07:39:56;;;;;;;106.20;34.88;;;;;;;;;;5071735;28;20225;-78
2022/12/11 07:42:23;;;;;;;103.30;31.70;;;;;;;;;;5074874;28;20220;-78
2022/12/11 07:44:50;;;;;;;97.75;28.48;;;;;;;;;;5075092;28;20239;-78
2022/12/11 07:47:17;;;;;;;92.72;26.83;;;;;;;;;;5078153;28;20288;-79
2022/12/11 07:49:44;;;;;;;99.32;30.00;;;;;;;;;;5078637;28;20235;-79
2022/12/11 07:52:11;;;;;;;98.97;29.35;;;;;;;;;;5078910;28;20588;-77
2022/12/11 07:54:40;;;;;;;93.38;26.63;;;;;;;;;;5071734;28;20211;-78
2022/12/11 07:57:07;;;;;;;98.88;29.23;;;;;;;;;;5065939;28;20225;-79
2022/12/11 07:59:34;;;;;;;96.55;27.02;;;;;;;;;;5078663;28;20225;-79
2022/12/11 08:02:01;;;;;;;93.78;26.75;;;;;;;;;;5079610;28;20209;-78
2022/12/11 08:04:29;;;;;;;99.80;29.55;;;;;;;;;;5078887;28;20231;-78
2022/12/11 08:06:56;;;;;;;100.72;29.90;;;;;;;;;;5079080;28;20288;-78
2022/12/11 08:09:23;;;;;;;97.30;29.55;;;;;;;;;;5078011;28;20212;-78
2022/12/11 08:11:52;;;;;;;96.00;27.90;;;;;;;;;;5078429;28;20290;-77
2022/12/11 08:14:19;;;;;;;93.25;28.90;;;;;;;;;;5077046;28;20583;-78
2022/12/11 08:16:47;;;;;;;90.95;26.83;;;;;;;;;;5076616;28;20315;-77
2022/12/11 08:19:14;;;;;;;101.43;30.35;;;;;;;;;;5076456;28;20206;-78
2022/12/11 08:21:42;;;;;;;97.43;29.25;;;;;;;;;;5078425;28;20307;-78
2022/12/11 08:24:09;;;;;;;97.00;27.65;;;;;;;;;;5078405;28;20701;-78
2022/12/11 08:26:37;;;;;;;98.90;29.25;;;;;;;;;;5078019;28;20259;-76
2022/12/11 08:29:05;;;;;;;93.55;27.27;;;;;;;;;;5076225;28;20243;-77
2022/12/11 08:31:32;;;;;;;94.90;27.27;;;;;;;;;;5077120;28;20665;-78
2022/12/11 08:33:59;;;;;;;89.75;26.45;;;;;;;;;;5077104;28;20213;-77
2022/12/11 08:36:26;;;;;;;93.35;27.10;;;;;;;;;;5076990;28;20215;-77
2022/12/11 08:38:55;;;;;;;93.85;27.20;;;;;;;;;;5076150;28;20239;-77
2022/12/11 08:41:23;;;;;;;94.22;27.95;;;;;;;;;;5076103;28;20319;-77
2022/12/11 08:43:53;;;;;;;93.53;26.00;;;;;;;;;;5076459;28;20207;-77
2022/12/11 08:46:23;;;;;;;94.47;27.58;;;;;;;;;;5076056;28;20212;-77
2022/12/11 08:48:50;;;;;;;91.28;27.27;;;;;;;;;;5075327;28;20228;-77
2022/12/11 08:51:18;;;;;;;93.22;25.58;;;;;;;;;;5076679;28;20239;-77
2022/12/11 08:53:46;;;;;;;93.85;27.48;;;;;;;;;;5075781;28;20666;-77
2022/12/11 08:56:14;;;;;;;91.93;26.40;;;;;;;;;;5076169;28;20208;-78
2022/12/11 08:58:42;;;;;;;89.85;25.50;;;;;;;;;;5075567;28;20618;-77
2022/12/11 09:01:09;;;;;;;91.75;27.33;;;;;;;;;;5076375;28;20234;-77
2022/12/11 09:03:38;;;;;;;92.78;26.83;;;;;;;;;;5076275;28;20242;-77
2022/12/11 09:06:06;;;;;;;88.50;24.52;;;;;;;;;;5075898;28;20251;-77
2022/12/11 09:08:33;;;;;;;91.25;26.10;;;;;;;;;;5074897;28;20678;-77
2022/12/11 09:11:03;;;;;;;94.60;27.17;;;;;;;;;;5075835;28;20283;-77
2022/12/11 09:13:30;;;;;;;91.50;26.23;;;;;;;;;;5076328;28;20617;-78
2022/12/11 09:15:57;;;;;;;91.25;25.92;;;;;;;;;;5077684;28;20207;-78
2022/12/11 09:18:24;;;;;;;91.72;25.70;;;;;;;;;;5077669;28;20705;-77
2022/12/11 09:20:59;;;;;;;87.32;23.60;;;;;;;;;;5074239;28;20225;-77
2022/12/11 09:23:27;;;;;;;96.25;26.17;;;;;;;;;;5074477;28;20208;-77
2022/12/11 09:25:54;;;;;;;87.22;23.33;;;;;;;;;;5074148;28;20216;-75
2022/12/11 09:28:21;;;;;;;92.82;27.33;;;;;;;;;;5074312;28;20217;-77
2022/12/11 09:30:48;;;;;;;90.97;26.35;;;;;;;;;;5073278;28;20603;-76
2022/12/11 09:33:16;;;;;;;96.68;28.15;;;;;;;;;;5074478;28;20621;-77
2022/12/11 09:35:43;;;;;;;91.60;26.80;;;;;;;;;;5074732;28;20243;-76
2022/12/11 09:38:11;;;;;;;93.03;27.77;;;;;;;;;;5074228;28;20645;-75
2022/12/11 09:40:42;;;;;;;91.40;26.95;;;;;;;;;;5073359;28;20710;-77
2022/12/11 09:43:14;;;;;;;91.13;26.05;;;;;;;;;;5074422;28;20209;-77
2022/12/11 09:45:41;;;;;;;94.50;28.90;;;;;;;;;;5074994;28;20296;-77
2022/12/11 09:48:09;;;;;;;97.88;28.15;;;;;;;;;;5074983;28;20296;-76
2022/12/11 09:50:37;;;;;;;91.70;27.80;;;;;;;;;;5073891;28;20660;-76
2022/12/11 09:53:07;;;;;;;93.57;27.27;;;;;;;;;;5074451;28;20205;-77
2022/12/11 09:55:40;;;;;;;95.32;31.35;;;;;;;;;;5075184;28;20211;-77
2022/12/11 09:58:14;;;;;;;88.32;25.42;;;;;;;;;;5074667;28;20218;-77
2022/12/11 10:00:44;;;;;;;95.35;27.23;;;;;;;;;;5073845;28;20226;-77
2022/12/11 10:03:23;;;;;;;94.43;27.45;;;;;;;;;;5074672;28;20205;-77
2022/12/11 10:05:52;;;;;;;92.57;26.05;;;;;;;;;;5074840;28;20211;-77
2022/12/11 10:08:24;;;;;;;90.15;25.35;;;;;;;;;;5074536;28;20206;-77
2022/12/11 10:10:57;;;;;;;88.13;24.20;;;;;;;;;;5074018;28;20226;-78
2022/12/11 10:13:29;;;;;;;86.10;23.45;;;;;;;;;;5074858;28;20226;-78
2022/12/11 10:15:59;;;;;;;89.20;23.83;;;;;;;;;;5075497;28;20672;-77
2022/12/11 10:18:28;;;;;;;87.78;24.17;;;;;;;;;;5075054;28;20228;-78
2022/12/11 10:20:55;;;;;;;89.47;25.60;;;;;;;;;;5076000;28;20229;-80
2022/12/11 10:23:24;;;;;;;91.53;24.75;;;;;;;;;;5077249;28;20317;-80
2022/12/11 10:25:54;;;;;;;85.88;24.50;;;;;;;;;;5075906;28;20213;-80
2022/12/11 10:28:22;;;;;;;91.00;25.63;;;;;;;;;;5076893;28;20211;-79
2022/12/11 10:30:50;;;;;;;89.30;25.70;;;;;;;;;;5076356;28;20312;-80
2022/12/11 10:33:21;;;;;;;93.25;26.20;;;;;;;;;;5077171;28;20237;-80
2022/12/11 10:35:49;;;;;;;81.68;20.25;;;;;;;;;;5076553;28;20217;-80
2022/12/11 10:38:18;;;;;;;81.57;19.25;;;;;;;;;;5077202;28;20661;-79
2022/12/11 10:40:45;;;;;;;83.20;19.73;;;;;;;;;;5075888;28;20726;-79
2022/12/11 10:43:14;;;;;;;77.60;16.80;;;;;;;;;;5076853;28;20214;-80
2022/12/11 10:45:50;;;;;;;75.97;16.20;;;;;;;;;;5077578;28;20276;-79
2022/12/11 10:48:17;;;;;;;78.78;18.45;;;;;;;;;;5076720;28;20236;-79
2022/12/11 10:50:45;;;;;;;79.85;18.90;;;;;;;;;;5075464;28;20319;-79
2022/12/11 10:53:20;;;;;;;82.93;19.05;;;;;;;;;;5077538;28;20317;-78
2022/12/11 10:55:48;;;;;;;77.78;18.83;;;;;;;;;;5077274;28;20644;-78
2022/12/11 10:58:18;;;;;;;78.93;19.60;;;;;;;;;;5077829;28;20230;-78
2022/12/11 11:00:46;;;;;;;82.40;17.85;;;;;;;;;;5076805;28;20317;-78
2022/12/11 11:03:21;;;;;;;79.43;18.83;;;;;;;;;;5077161;28;20215;-78
2022/12/11 11:05:49;;;;;;;80.47;19.00;;;;;;;;;;5076631;28;20207;-78
2022/12/11 11:08:19;;;;;;;76.43;17.40;;;;;;;;;;5076755;28;20204;-78
2022/12/11 11:10:52;;;;;;;75.85;16.63;;;;;;;;;;5076469;28;20229;-79
2022/12/11 11:13:22;;;;;;;80.45;17.00;;;;;;;;;;5076298;28;20293;-79
2022/12/11 11:15:50;;;;;;;78.65;18.10;;;;;;;;;;5077522;28;20559;-79
2022/12/11 11:18:22;;;;;;;81.13;19.00;;;;;;;;;;5078089;28;20318;-78
2022/12/11 11:20:49;;;;;;;77.85;18.85;;;;;;;;;;5078356;28;20253;-78
2022/12/11 11:23:17;;;;;;;79.28;17.95;;;;;;;;;;5082927;28;20208;-79
2022/12/11 11:25:50;;;;;;;81.45;17.80;;;;;;;;;;5082055;28;20223;-79
2022/12/11 11:28:20;;;;;;;86.25;23.15;;;;;;;;;;5081329;28;20232;-79
2022/12/11 11:30:57;;;;;;;96.65;26.58;;;;;;;;;;5080942;28;20238;-79
2022/12/11 11:33:24;;;;;;;76.55;17.15;;;;;;;;;;5079303;28;20222;-77
2022/12/11 11:35:52;;;;;;;79.30;15.85;;;;;;;;;;5078014;28;20204;-76
2022/12/11 11:38:21;;;;;;;73.95;14.63;;;;;;;;;;5077639;28;20232;-77
2022/12/11 11:40:51;;;;;;;74.95;14.15;;;;;;;;;;5078352;28;20224;-78
2022/12/11 11:43:21;;;;;;;72.95;13.10;;;;;;;;;;5079791;28;20274;-78
2022/12/11 11:45:52;;;;;;;72.13;13.88;;;;;;;;;;5079851;28;20302;-77
2022/12/11 11:48:29;;;;;;;72.95;14.30;;;;;;;;;;5079493;28;20200;-78
2022/12/11 11:50:57;;;;;;;72.57;15.20;;;;;;;;;;5078678;28;20307;-77
2022/12/11 11:53:27;;;;;;;76.70;16.38;;;;;;;;;;5079286;28;20300;-77
2022/12/11 11:55:59;;;;;;;74.43;14.48;;;;;;;;;;5078162;28;20212;-77
2022/12/11 11:58:28;;;;;;;74.10;15.85;;;;;;;;;;5077975;28;20228;-76
2022/12/11 12:00:55;;;;;;;79.88;16.08;;;;;;;;;;5077762;28;20224;-77
2022/12/11 12:03:24;;;;;;;76.13;15.90;;;;;;;;;;5077638;28;20212;-76
2022/12/11 12:05:54;;;;;;;72.40;13.48;;;;;;;;;;5077918;28;20232;-77
2022/12/11 12:08:27;;;;;;;75.27;15.50;;;;;;;;;;5077586;28;20201;-77
2022/12/11 12:10:58;;;;;;;74.97;16.50;;;;;;;;;;5077468;28;20826;-77
2022/12/11 12:13:29;;;;;;;75.93;16.73;;;;;;;;;;5076308;28;20914;-77
2022/12/11 12:15:58;;;;;;;75.10;15.30;;;;;;;;;;5075500;28;20212;-76
2022/12/11 12:18:33;;;;;;;75.72;17.25;;;;;;;;;;5075186;28;20865;-76
2022/12/11 12:21:06;;;;;;;71.65;13.82;;;;;;;;;;5075686;28;20265;-76
2022/12/11 12:23:41;;;;;;;77.72;16.00;;;;;;;;;;5076117;28;20223;-77
2022/12/11 12:26:11;;;;;;;74.93;16.65;;;;;;;;;;5075311;28;20724;-77
2022/12/11 12:28:43;;;;;;;77.00;16.20;;;;;;;;;;5076395;28;20208;-79
2022/12/11 12:31:17;;;;;;;85.00;18.17;;;;;;;;;;5078966;28;20229;-79
2022/12/11 12:33:51;;;;;;;91.78;26.77;;;;;;;;;;5079013;28;20299;-78
2022/12/11 12:36:23;;;;;;;87.22;22.77;;;;;;;;;;5079148;28;20211;-78
2022/12/11 12:38:54;;;;;;;107.82;34.38;;;;;;;;;;5077608;28;20232;-78
2022/12/11 12:41:23;;;;;;;85.18;20.05;;;;;;;;;;5078718;28;20735;-77
2022/12/11 12:44:00;;;;;;;90.88;23.20;;;;;;;;;;5079399;28;20668;-78
2022/12/11 12:46:33;;;;;;;78.60;17.77;;;;;;;;;;5078979;28;20225;-79
2022/12/11 12:49:02;;;;;;;86.32;21.23;;;;;;;;;;5078179;28;20208;-78
2022/12/11 12:51:30;;;;;;;163.75;51.80;;;;;;;;;;5077660;28;20253;-77
2022/12/11 12:53:59;;;;;;;81.97;19.08;;;;;;;;;;5078516;28;20211;-78
2022/12/11 12:56:28;;;;;;;161.05;54.42;;;;;;;;;;5078536;28;20217;-79
2022/12/11 12:58:55;;;;;;;204.25;72.25;;;;;;;;;;5078157;28;20320;-79
2022/12/11 13:01:24;;;;;;;133.35;43.20;;;;;;;;;;5077383;28;20311;-76
2022/12/11 13:03:54;;;;;;;134.25;41.08;;;;;;;;;;5078383;28;20676;-77
2022/12/11 13:06:34;;;;;;;130.23;44.85;;;;;;;;;;5077574;28;20205;-78
2022/12/11 13:09:11;;;;;;;154.63;55.00;;;;;;;;;;5076014;28;20203;-78
2022/12/11 13:11:38;;;;;;;198.75;75.85;;;;;;;;;;5078221;28;20230;-77
2022/12/11 13:14:07;;;;;;;95.43;27.15;;;;;;;;;;5077855;28;20212;-77
2022/12/11 13:16:38;;;;;;;113.53;35.78;;;;;;;;;;5075922;28;20331;-78
2022/12/11 13:19:16;;;;;;;89.00;22.98;;;;;;;;;;5074800;28;20228;-76
2022/12/11 13:21:55;;;;;;;98.60;30.67;;;;;;;;;;5074157;28;20226;-76
2022/12/11 13:24:26;;;;;;;86.07;23.00;;;;;;;;;;5074092;28;20594;-76
2022/12/11 13:26:53;;;;;;;123.68;44.53;;;;;;;;;;5073907;28;20226;-76
2022/12/11 13:29:30;;;;;;;124.57;44.72;;;;;;;;;;5073193;28;20229;-76
2022/12/11 13:31:58;;;;;;;93.35;24.90;;;;;;;;;;5074290;28;20614;-77
2022/12/11 13:34:27;;;;;;;100.40;34.85;;;;;;;;;;5076118;28;20207;-78
2022/12/11 13:36:56;;;;;;;159.13;62.67;;;;;;;;;;5076787;28;20283;-78
2022/12/11 13:39:24;;;;;;;108.35;35.45;;;;;;;;;;5075724;28;20239;-78
2022/12/11 13:41:53;;;;;;;118.40;45.75;;;;;;;;;;5077462;28;20230;-78
2022/12/11 13:44:22;;;;;;;196.48;96.78;;;;;;;;;;5076273;28;20207;-78
2022/12/11 13:46:50;;;;;;;101.40;39.28;;;;;;;;;;5076479;28;20204;-78
2022/12/11 13:49:22;;;;;;;86.82;25.33;;;;;;;;;;5076162;28;20290;-77
2022/12/11 13:51:52;;;;;;;84.00;22.55;;;;;;;;;;5077029;28;20215;-78
2022/12/11 13:54:21;;;;;;;88.00;23.30;;;;;;;;;;5076917;28;20212;-78
2022/12/11 13:56:55;;;;;;;84.00;21.65;;;;;;;;;;5077093;28;20299;-78
2022/12/11 13:59:24;;;;;;;83.57;21.55;;;;;;;;;;5075684;28;20233;-78
2022/12/11 14:01:53;;;;;;;89.10;23.95;;;;;;;;;;5076698;28;20749;-77
2022/12/11 14:04:22;;;;;;;97.05;23.58;;;;;;;;;;5075539;28;20410;-77
2022/12/11 14:06:49;;;;;;;90.45;25.13;;;;;;;;;;5075571;28;20210;-77
2022/12/11 14:09:18;;;;;;;86.85;20.65;;;;;;;;;;5074724;28;20208;-77
2022/12/11 14:11:47;;;;;;;109.72;33.28;;;;;;;;;;5075197;28;20213;-76
2022/12/11 14:14:18;;;;;;;86.72;24.60;;;;;;;;;;5074222;28;20206;-76
2022/12/11 14:16:47;;;;;;;90.10;23.50;;;;;;;;;;5073996;28;20220;-76
2022/12/11 14:19:17;;;;;;;90.35;23.25;;;;;;;;;;5074062;28;20233;-77
2022/12/11 14:21:54;;;;;;;83.70;20.95;;;;;;;;;;5075035;28;20210;-77
2022/12/11 14:24:22;;;;;;;84.68;22.63;;;;;;;;;;5074748;28;20211;-77
2022/12/11 14:26:52;;;;;;;99.03;34.38;;;;;;;;;;5072531;28;20219;-76
2022/12/11 14:29:29;;;;;;;94.30;27.27;;;;;;;;;;5071775;28;20561;-77
2022/12/11 14:31:58;;;;;;;87.85;24.80;;;;;;;;;;5072603;28;20297;-77
2022/12/11 14:34:27;;;;;;;88.18;23.13;;;;;;;;;;5072355;28;20209;-76